KRSTKTVL

Guest
Details From KRST - Rochester Intl
To KTVL - South Lake Tahoe
Flight Number -
Tags decoded
Created
Modified
Stats Distance 1,306 nm / 2,420 km
Max Altitude 0 ft / 0 m
Waypoints 4
Social Downloads 0
Likes 0
Share VATSIM

Download

Looking for another format? Having issues loading an existing format? Contact us
Advertisement - Login to hide

Notes

Requested: KRST FOD Q122 MACUS KTVL Unmatched points: Q122

Route

KRST FOD MACUS KTVL

ID Type Via Altitude Latitude Longitude Leg Dist Tot Dist Heading (true) Name
O KRST APT - 0 ft / 0 m 43.90786˚ -92.50008˚ - 0 nm - Rochester Intl
FOD VOR - 0 ft / 0 m 42.61111˚ -94.29481˚ 110 nm 110 nm 226° / 225° FORT DODGE VORTAC
MACUS FIX - 0 ft / 0 m 39.88333˚ -118.80000˚ 1114 nm 1225 nm 270° / 254° -
O KTVL APT - 0 ft / 0 m 38.89388˚ -119.99533˚ 81 nm 1306 nm 223° / 223° South Lake Tahoe

Altitude Profile

Advertisement - Login to hide

Weather


0- 5 10 15 20 25 30 35+ Temperature / ° C

Clouds and Precipitation
Forecast for 2017-12-17 06:00 UTC. Updated an hour ago

Ground ~20,000 ft ~40,000 ft Winds

KRST

Details ICAO KRST (RST)
Name Rochester Intl
Region United States
Timezone America/Chicago (UTC-6.0)
Stats Elevation 1,317 ft / 401 m (AMSL)
Location 43.907862° -92.500085°
Runways 2
Magnetic Variation 0.296° W

METAR

KRST 170354Z 05005KT 9SM CLR M06/M07 A3007 RMK AO2 SLP202 T10561067

Decode

TAF

TAF AMD KRST 170356Z 1704/1724 05006KT P6SM SKC FM170600 05005KT 5SM BR OVC005 FM171900 35004KT P6SM OVC008

Decode

Departure Runways

ID Width Length Bearing (true) Bearing (mag) Surface Threshold Offset Overrun Length
13 151 ft / 46 m 9,025 ft / 2,751 m 132.22° 132.52° Concrete 0 ft / 0 m 0 ft / 0 m
2 151 ft / 46 m 7,303 ft / 2,226 m 26.39° 26.69° Concrete 0 ft / 0 m 0 ft / 0 m
20 151 ft / 46 m 7,303 ft / 2,226 m 206.40° 206.70° Concrete 0 ft / 0 m 0 ft / 0 m
31 151 ft / 46 m 9,025 ft / 2,751 m 312.24° 312.54° Concrete 0 ft / 0 m 0 ft / 0 m

KTVL

Details ICAO KTVL (TVL)
Name South Lake Tahoe
Region United States
Timezone America/Los_Angeles (UTC-8.0)
Stats Elevation 6,264 ft / 1,909 m (AMSL)
Location 38.893882° -119.995335°
Runways 1
Magnetic Variation 13.320° E

METAR

KTVL 170353Z AUTO VRB05KT 10SM CLR M04/M11 A3004 RMK AO2 SLP183 T10391106

Decode

TAF

TAF KTVL 162320Z 1700/1724 03012KT P6SM SCT040 FM170200 VRB05KT P6SM SKC FM171900 04007KT P6SM SKC

Decode

Destination Runways

ID Width Length Bearing (true) Bearing (mag) Surface Threshold Offset Overrun Length
18 150 ft / 46 m 8,556 ft / 2,608 m 192.88° 179.56° Asphalt 0 ft / 0 m 0 ft / 0 m
36 150 ft / 46 m 8,556 ft / 2,608 m 12.88° 359.56° Asphalt 2,037 ft / 621 m 0 ft / 0 m

Approach Navaids

Runway Type Ident Frequency Range Bearing (true) Bearing (mag) Slope Elevation
18 Localiser ITVL 108.90 MHz 18 nm / 33 km 186.00° 172.68° - 6,264 ft / 1,909 m (AMSL)
18 DME ITVL 108.90 MHz 18 nm / 33 km - - - 6,264 ft / 1,909 m (AMSL)

Popular Alternatives